Oceanus Leader — 3FDF7 — position and weather

sailwx.info

Track history (hours):
 
Tides and Currents Weather Stations Pressure Air Temp Water Temp Dewpoint Dewpoint Depression Visibility Wind Speed Wind Dir Waves Ship Positions

Oceanus Leader

Last reported at 2017-Nov-27 09:18 UTC. Time now 2017-Dec-13 19:02 UTC.
Position N 33°15' E 132°03'.
Warning: this ship's position is 16 days out of date.

Length 199 m; draft 8.4 m.

Type: Cargo ship. MMSI: 351026000.

Date/timePositionNaut miles runAvg speedWind from/ knotsBaromVisibWave heightAir tempDewpointWater temp
2017-Nov-27 09:18N 33°15' E 132°03'412.3
2017-Nov-27 09:00N 33°18' E 131°60'816.1
2017-Nov-27 08:31N 33°25' E 132°03'1119.7
2017-Nov-27 07:56N 33°34' E 132°12'919.2
2017-Nov-27 07:28N 33°41' E 132°19'1019.0
2017-Nov-27 06:55N 33°49' E 132°27'818.9
2017-Nov-27 06:30N 33°54' E 132°34'713.9
2017-Nov-27 06:01N 34°01' E 132°32'917.7
2017-Nov-27 05:30N 34°07' E 132°23'816.1
2017-Nov-27 05:00N 34°14' E 132°21'713.1
2017-Nov-27 04:31N 34°21' E 132°22'0 0.5
2017-Nov-27 03:59N 34°21' E 132°22'0 0.0
2017-Nov-27 03:29N 34°21' E 132°22'0 0.0
2017-Nov-27 02:59N 34°21' E 132°22'0 0.0
2017-Nov-27 02:23N 34°21' E 132°22'0 0.0
2017-Nov-27 01:59N 34°21' E 132°22'0 0.0
2017-Nov-27 01:29N 34°21' E 132°22'0 0.0
2017-Nov-27 00:59N 34°21' E 132°22'0 0.0
2017-Nov-27 00:29N 34°21' E 132°22'0 0.0
2017-Nov-26 23:56N 34°21' E 132°22'0 0.0
2017-Nov-26 23:29N 34°21' E 132°22'0 0.0
2017-Nov-26 22:59N 34°21' E 132°22'0 0.0
2017-Nov-26 22:29N 34°21' E 132°22'0 0.0
2017-Nov-26 21:59N 34°21' E 132°22'0 0.9
2017-Nov-26 21:30N 34°20' E 132°22'1 1.2
2017-Nov-26 21:00N 34°20' E 132°22'0 0.0
2017-Nov-26 20:30N 34°20' E 132°22'0 0.0
2017-Nov-26 20:00N 34°20' E 132°22'0 0.0
2017-Nov-26 19:27N 34°20' E 132°22'0 0.1
2017-Nov-26 19:00N 34°20' E 132°22'0 0.1
2017-Nov-26 18:30N 34°20' E 132°22'0 0.1
2017-Nov-26 18:00N 34°20' E 132°22'0 0.0
2017-Nov-26 17:30N 34°20' E 132°22'0 0.0
2017-Nov-26 17:00N 34°20' E 132°22'0 0.0
2017-Nov-26 16:30N 34°20' E 132°22'0 0.1
2017-Nov-26 16:00N 34°20' E 132°22'0 0.3
2017-Nov-26 15:30N 34°20' E 132°22'3 5.8
2017-Nov-26 15:01N 34°17' E 132°21'713.9
2017-Nov-26 14:30N 34°10' E 132°21'917.6
2017-Nov-26 14:00N 34°03' E 132°27'816.1
2017-Nov-26 13:30N 34°03' E 132°36'80 4.5
2017-Nov-25 19:37N 34°26' E 134°09'315.7
2017-Nov-25 19:27N 34°25' E 134°12'714.8
2017-Nov-25 19:00N 34°25' E 134°20'815.2
2017-Nov-25 18:30N 34°27' E 134°28'815.4
2017-Nov-25 18:01N 34°30' E 134°37'815.1
2017-Nov-25 17:30N 34°33' E 134°46'714.9
2017-Nov-25 17:00N 34°36' E 134°54'612.4
2017-Nov-25 16:30N 34°37' E 135°02'5 9.1
2017-Nov-25 16:01N 34°35' E 135°07'4 7.6
2017-Nov-25 15:31N 34°35' E 135°11'2 4.2
2017-Nov-25 14:59N 34°35' E 135°14'0 0.0
2017-Nov-25 14:29N 34°35' E 135°14'0 0.0
2017-Nov-25 13:56N 34°35' E 135°14'0 0.0
2017-Nov-25 13:29N 34°35' E 135°14'0 0.0
2017-Nov-25 12:59N 34°35' E 135°14'0 0.0
2017-Nov-25 12:29N 34°35' E 135°14'0 0.0
2017-Nov-25 11:59N 34°35' E 135°14'0 0.0
2017-Nov-25 11:29N 34°35' E 135°14'0 0.0
2017-Nov-25 10:59N 34°35' E 135°14'0 0.0
2017-Nov-25 10:29N 34°35' E 135°14'0 0.0
2017-Nov-25 09:59N 34°35' E 135°14'0 0.0
2017-Nov-25 09:29N 34°35' E 135°14'0 0.0
2017-Nov-25 08:59N 34°35' E 135°14'0 0.0
2017-Nov-25 08:29N 34°35' E 135°14'0 0.0
2017-Nov-25 07:59N 34°35' E 135°14'0 0.0
2017-Nov-25 07:29N 34°35' E 135°14'0 0.0
2017-Nov-25 06:59N 34°35' E 135°14'0 0.8
2017-Nov-25 06:30N 34°35' E 135°14'510.0
2017-Nov-25 06:00N 34°39' E 135°18'2 4.2
2017-Nov-25 05:28N 34°41' E 135°17'0 0.0
2017-Nov-25 04:58N 34°41' E 135°17'0 0.0
2017-Nov-25 04:28N 34°41' E 135°17'0 0.0
2017-Nov-25 03:58N 34°41' E 135°17'0 0.0
2017-Nov-25 03:25N 34°41' E 135°17'0 0.0
2017-Nov-25 02:55N 34°41' E 135°17'0 0.0
2017-Nov-25 02:19N 34°41' E 135°17'0 0.0
2017-Nov-25 01:55N 34°41' E 135°17'0 0.0
2017-Nov-25 01:25N 34°41' E 135°17'0 0.0
2017-Nov-25 00:55N 34°41' E 135°17'0 0.0
2017-Nov-25 00:25N 34°41' E 135°17'0 0.0
2017-Nov-24 23:55N 34°41' E 135°17'0 0.0
2017-Nov-24 23:19N 34°41' E 135°17'0 0.0
2017-Nov-24 22:55N 34°41' E 135°17'0 0.0
2017-Nov-24 22:26N 34°41' E 135°17'0 1.2
2017-Nov-24 22:00N 34°41' E 135°18'5 9.9
2017-Nov-24 21:30N 34°36' E 135°18'714.5
2017-Nov-24 21:00N 34°30' E 135°12'917.4
2017-Nov-24 20:30N 34°23' E 135°05'916.7
2017-Nov-24 19:59N 34°16' E 134°59'612.7
2017-Nov-24 19:30N 34°10' E 134°60'4 8.9
2017-Nov-24 19:00N 34°06' E 134°60'611.7
2017-Nov-24 18:29N 33°60' E 134°59'611.6
2017-Nov-24 17:58N 33°54' E 134°58'  
Track history (hours):
 
Tides and Currents Weather Stations Pressure Air Temp Water Temp Dewpoint Dewpoint Depression Visibility Wind Speed Wind Dir Waves Ship Positions

Oceanus Leader

Last reported at 2017-Nov-27 09:18 UTC. Time now 2017-Dec-13 19:02 UTC.
Position N 33°15' E 132°03'.
Warning: this ship's position is 16 days out of date.

Length 199 m; draft 8.4 m.

Type: Cargo ship. MMSI: 351026000.

Date/timePositionNaut miles runAvg speedWind from/ knotsBaromVisibWave heightAir tempDewpointWater temp
2017-Nov-27 09:18N 33°15' E 132°03'412.3
2017-Nov-27 09:00N 33°18' E 131°60'816.1
2017-Nov-27 08:31N 33°25' E 132°03'1119.7
2017-Nov-27 07:56N 33°34' E 132°12'919.2
2017-Nov-27 07:28N 33°41' E 132°19'1019.0
2017-Nov-27 06:55N 33°49' E 132°27'818.9
2017-Nov-27 06:30N 33°54' E 132°34'713.9
2017-Nov-27 06:01N 34°01' E 132°32'917.7
2017-Nov-27 05:30N 34°07' E 132°23'816.1
2017-Nov-27 05:00N 34°14' E 132°21'713.1
2017-Nov-27 04:31N 34°21' E 132°22'0 0.5
2017-Nov-27 03:59N 34°21' E 132°22'0 0.0
2017-Nov-27 03:29N 34°21' E 132°22'0 0.0
2017-Nov-27 02:59N 34°21' E 132°22'0 0.0
2017-Nov-27 02:23N 34°21' E 132°22'0 0.0
2017-Nov-27 01:59N 34°21' E 132°22'0 0.0
2017-Nov-27 01:29N 34°21' E 132°22'0 0.0
2017-Nov-27 00:59N 34°21' E 132°22'0 0.0
2017-Nov-27 00:29N 34°21' E 132°22'0 0.0
2017-Nov-26 23:56N 34°21' E 132°22'0 0.0
2017-Nov-26 23:29N 34°21' E 132°22'0 0.0
2017-Nov-26 22:59N 34°21' E 132°22'0 0.0
2017-Nov-26 22:29N 34°21' E 132°22'0 0.0
2017-Nov-26 21:59N 34°21' E 132°22'0 0.9
2017-Nov-26 21:30N 34°20' E 132°22'1 1.2
2017-Nov-26 21:00N 34°20' E 132°22'0 0.0
2017-Nov-26 20:30N 34°20' E 132°22'0 0.0
2017-Nov-26 20:00N 34°20' E 132°22'0 0.0
2017-Nov-26 19:27N 34°20' E 132°22'0 0.1
2017-Nov-26 19:00N 34°20' E 132°22'0 0.1
2017-Nov-26 18:30N 34°20' E 132°22'0 0.1
2017-Nov-26 18:00N 34°20' E 132°22'0 0.0
2017-Nov-26 17:30N 34°20' E 132°22'0 0.0
2017-Nov-26 17:00N 34°20' E 132°22'0 0.0
2017-Nov-26 16:30N 34°20' E 132°22'0 0.1
2017-Nov-26 16:00N 34°20' E 132°22'0 0.3
2017-Nov-26 15:30N 34°20' E 132°22'3 5.8
2017-Nov-26 15:01N 34°17' E 132°21'713.9
2017-Nov-26 14:30N 34°10' E 132°21'917.6
2017-Nov-26 14:00N 34°03' E 132°27'816.1
2017-Nov-26 13:30N 34°03' E 132°36'80 4.5
2017-Nov-25 19:37N 34°26' E 134°09'315.7
2017-Nov-25 19:27N 34°25' E 134°12'714.8
2017-Nov-25 19:00N 34°25' E 134°20'815.2
2017-Nov-25 18:30N 34°27' E 134°28'815.4
2017-Nov-25 18:01N 34°30' E 134°37'815.1
2017-Nov-25 17:30N 34°33' E 134°46'714.9
2017-Nov-25 17:00N 34°36' E 134°54'612.4
2017-Nov-25 16:30N 34°37' E 135°02'5 9.1
2017-Nov-25 16:01N 34°35' E 135°07'4 7.6
2017-Nov-25 15:31N 34°35' E 135°11'2 4.2
2017-Nov-25 14:59N 34°35' E 135°14'0 0.0
2017-Nov-25 14:29N 34°35' E 135°14'0 0.0
2017-Nov-25 13:56N 34°35' E 135°14'0 0.0
2017-Nov-25 13:29N 34°35' E 135°14'0 0.0
2017-Nov-25 12:59N 34°35' E 135°14'0 0.0
2017-Nov-25 12:29N 34°35' E 135°14'0 0.0
2017-Nov-25 11:59N 34°35' E 135°14'0 0.0
2017-Nov-25 11:29N 34°35' E 135°14'0 0.0
2017-Nov-25 10:59N 34°35' E 135°14'0 0.0
2017-Nov-25 10:29N 34°35' E 135°14'0 0.0
2017-Nov-25 09:59N 34°35' E 135°14'0 0.0
2017-Nov-25 09:29N 34°35' E 135°14'0 0.0
2017-Nov-25 08:59N 34°35' E 135°14'0 0.0
2017-Nov-25 08:29N 34°35' E 135°14'0 0.0
2017-Nov-25 07:59N 34°35' E 135°14'0 0.0
2017-Nov-25 07:29N 34°35' E 135°14'0 0.0
2017-Nov-25 06:59N 34°35' E 135°14'0 0.8
2017-Nov-25 06:30N 34°35' E 135°14'510.0
2017-Nov-25 06:00N 34°39' E 135°18'2 4.2
2017-Nov-25 05:28N 34°41' E 135°17'0 0.0
2017-Nov-25 04:58N 34°41' E 135°17'0 0.0
2017-Nov-25 04:28N 34°41' E 135°17'0 0.0
2017-Nov-25 03:58N 34°41' E 135°17'0 0.0
2017-Nov-25 03:25N 34°41' E 135°17'0 0.0
2017-Nov-25 02:55N 34°41' E 135°17'0 0.0
2017-Nov-25 02:19N 34°41' E 135°17'0 0.0
2017-Nov-25 01:55N 34°41' E 135°17'0 0.0
2017-Nov-25 01:25N 34°41' E 135°17'0 0.0
2017-Nov-25 00:55N 34°41' E 135°17'0 0.0
2017-Nov-25 00:25N 34°41' E 135°17'0 0.0
2017-Nov-24 23:55N 34°41' E 135°17'0 0.0
2017-Nov-24 23:19N 34°41' E 135°17'0 0.0
2017-Nov-24 22:55N 34°41' E 135°17'0 0.0
2017-Nov-24 22:26N 34°41' E 135°17'0 1.2
2017-Nov-24 22:00N 34°41' E 135°18'5 9.9
2017-Nov-24 21:30N 34°36' E 135°18'714.5
2017-Nov-24 21:00N 34°30' E 135°12'917.4
2017-Nov-24 20:30N 34°23' E 135°05'916.7
2017-Nov-24 19:59N 34°16' E 134°59'612.7
2017-Nov-24 19:30N 34°10' E 134°60'4 8.9
2017-Nov-24 19:00N 34°06' E 134°60'611.7
2017-Nov-24 18:29N 33°60' E 134°59'611.6
2017-Nov-24 17:58N 33°54' E 134°58'  

Dump ship's entire track history